sensor_id;sensor_type;location;lat;lon;timestamp;P1;durP1;ratioP1;P2;durP2;ratioP2
52724;SDS011;38621;52.830;6.914;2023-05-16T00:00:15;7.43;;;1.95;;
52724;SDS011;38621;52.830;6.914;2023-05-16T00:02:41;6.25;;;2.05;;
52724;SDS011;38621;52.830;6.914;2023-05-16T00:05:07;6.85;;;1.98;;
52724;SDS011;38621;52.830;6.914;2023-05-16T00:07:34;8.65;;;2.00;;
52724;SDS011;38621;52.830;6.914;2023-05-16T00:10:00;7.95;;;2.38;;
52724;SDS011;38621;52.830;6.914;2023-05-16T00:12:27;6.78;;;2.00;;
52724;SDS011;38621;52.830;6.914;2023-05-16T00:14:53;9.25;;;2.40;;
52724;SDS011;38621;52.830;6.914;2023-05-16T00:17:19;6.53;;;1.92;;
52724;SDS011;38621;52.830;6.914;2023-05-16T00:19:46;7.88;;;2.03;;
52724;SDS011;38621;52.830;6.914;2023-05-16T00:22:16;9.45;;;2.45;;
52724;SDS011;38621;52.830;6.914;2023-05-16T00:24:41;7.75;;;1.90;;
52724;SDS011;38621;52.830;6.914;2023-05-16T00:27:07;7.53;;;2.00;;
52724;SDS011;38621;52.830;6.914;2023-05-16T00:29:33;9.63;;;2.28;;
52724;SDS011;38621;52.830;6.914;2023-05-16T00:31:59;7.38;;;2.20;;
52724;SDS011;38621;52.830;6.914;2023-05-16T00:34:25;6.13;;;1.80;;
52724;SDS011;38621;52.830;6.914;2023-05-16T00:36:51;5.93;;;1.80;;
52724;SDS011;38621;52.830;6.914;2023-05-16T00:39:17;5.05;;;1.77;;
52724;SDS011;38621;52.830;6.914;2023-05-16T00:41:43;8.98;;;1.75;;
52724;SDS011;38621;52.830;6.914;2023-05-16T00:44:10;7.93;;;1.58;;
52724;SDS011;38621;52.830;6.914;2023-05-16T00:46:35;7.68;;;1.92;;
52724;SDS011;38621;52.830;6.914;2023-05-16T00:49:01;6.10;;;1.45;;
52724;SDS011;38621;52.830;6.914;2023-05-16T00:51:28;8.32;;;2.30;;
52724;SDS011;38621;52.830;6.914;2023-05-16T00:53:54;7.72;;;2.47;;
52724;SDS011;38621;52.830;6.914;2023-05-16T00:56:21;9.48;;;1.90;;
52724;SDS011;38621;52.830;6.914;2023-05-16T00:58:47;10.88;;;1.90;;
52724;SDS011;38621;52.830;6.914;2023-05-16T01:01:14;6.55;;;1.83;;
52724;SDS011;38621;52.830;6.914;2023-05-16T01:03:40;6.50;;;1.85;;
52724;SDS011;38621;52.830;6.914;2023-05-16T01:06:07;7.90;;;2.10;;
52724;SDS011;38621;52.830;6.914;2023-05-16T01:08:32;5.70;;;1.88;;
52724;SDS011;38621;52.830;6.914;2023-05-16T01:11:11;6.85;;;1.98;;
52724;SDS011;38621;52.830;6.914;2023-05-16T01:14:04;6.65;;;1.80;;
52724;SDS011;38621;52.830;6.914;2023-05-16T01:22:01;7.93;;;1.70;;
52724;SDS011;38621;52.830;6.914;2023-05-16T01:24:33;6.32;;;1.88;;
52724;SDS011;38621;52.830;6.914;2023-05-16T01:27:07;4.40;;;1.30;;
52724;SDS011;38621;52.830;6.914;2023-05-16T01:29:35;7.95;;;1.55;;
52724;SDS011;38621;52.830;6.914;2023-05-16T01:32:01;6.03;;;1.50;;
52724;SDS011;38621;52.830;6.914;2023-05-16T01:34:27;5.80;;;1.65;;
52724;SDS011;38621;52.830;6.914;2023-05-16T01:36:57;7.93;;;2.78;;
52724;SDS011;38621;52.830;6.914;2023-05-16T01:42:11;7.15;;;1.75;;
52724;SDS011;38621;52.830;6.914;2023-05-16T01:47:08;8.30;;;1.70;;
52724;SDS011;38621;52.830;6.914;2023-05-16T01:49:49;9.52;;;1.55;;
52724;SDS011;38621;52.830;6.914;2023-05-16T01:52:32;7.27;;;1.57;;
52724;SDS011;38621;52.830;6.914;2023-05-16T01:55:06;7.55;;;1.67;;
52724;SDS011;38621;52.830;6.914;2023-05-16T01:57:36;6.88;;;2.10;;
52724;SDS011;38621;52.830;6.914;2023-05-16T02:00:04;6.53;;;1.95;;
52724;SDS011;38621;52.830;6.914;2023-05-16T02:02:31;12.65;;;1.92;;
52724;SDS011;38621;52.830;6.914;2023-05-16T02:04:56;4.90;;;1.77;;
52724;SDS011;38621;52.830;6.914;2023-05-16T02:07:22;6.20;;;1.80;;
52724;SDS011;38621;52.830;6.914;2023-05-16T02:09:47;6.47;;;1.58;;
52724;SDS011;38621;52.830;6.914;2023-05-16T02:12:13;8.07;;;1.50;;
52724;SDS011;38621;52.830;6.914;2023-05-16T02:14:39;5.25;;;1.42;;
52724;SDS011;38621;52.830;6.914;2023-05-16T02:17:05;5.70;;;1.50;;
52724;SDS011;38621;52.830;6.914;2023-05-16T02:19:31;7.82;;;1.55;;
52724;SDS011;38621;52.830;6.914;2023-05-16T02:21:56;5.47;;;1.48;;
52724;SDS011;38621;52.830;6.914;2023-05-16T02:24:22;5.63;;;1.63;;
52724;SDS011;38621;52.830;6.914;2023-05-16T02:26:48;4.70;;;1.15;;
52724;SDS011;38621;52.830;6.914;2023-05-16T02:29:13;6.28;;;1.35;;
52724;SDS011;38621;52.830;6.914;2023-05-16T02:31:40;6.72;;;1.67;;
52724;SDS011;38621;52.830;6.914;2023-05-16T02:34:06;8.23;;;1.40;;
52724;SDS011;38621;52.830;6.914;2023-05-16T02:36:33;5.25;;;1.60;;
52724;SDS011;38621;52.830;6.914;2023-05-16T02:39:00;7.85;;;1.60;;
52724;SDS011;38621;52.830;6.914;2023-05-16T02:41:26;8.23;;;1.52;;
52724;SDS011;38621;52.830;6.914;2023-05-16T02:43:52;6.82;;;1.80;;
52724;SDS011;38621;52.830;6.914;2023-05-16T02:48:51;5.80;;;1.58;;
52724;SDS011;38621;52.830;6.914;2023-05-16T02:51:19;5.22;;;1.50;;
52724;SDS011;38621;52.830;6.914;2023-05-16T02:53:45;6.03;;;1.65;;
52724;SDS011;38621;52.830;6.914;2023-05-16T02:56:11;8.05;;;1.73;;
52724;SDS011;38621;52.830;6.914;2023-05-16T02:58:37;6.63;;;1.50;;
52724;SDS011;38621;52.830;6.914;2023-05-16T03:01:03;5.43;;;1.67;;
52724;SDS011;38621;52.830;6.914;2023-05-16T03:03:28;9.93;;;1.70;;
52724;SDS011;38621;52.830;6.914;2023-05-16T03:05:54;3.97;;;1.30;;
52724;SDS011;38621;52.830;6.914;2023-05-16T03:08:20;6.05;;;1.77;;
52724;SDS011;38621;52.830;6.914;2023-05-16T03:10:45;4.97;;;1.70;;
52724;SDS011;38621;52.830;6.914;2023-05-16T03:13:11;5.70;;;1.48;;
52724;SDS011;38621;52.830;6.914;2023-05-16T03:15:37;6.07;;;1.60;;
52724;SDS011;38621;52.830;6.914;2023-05-16T03:18:02;8.80;;;1.90;;
52724;SDS011;38621;52.830;6.914;2023-05-16T03:20:28;7.65;;;1.77;;
52724;SDS011;38621;52.830;6.914;2023-05-16T03:22:54;8.05;;;1.75;;
52724;SDS011;38621;52.830;6.914;2023-05-16T03:25:20;6.45;;;1.35;;
52724;SDS011;38621;52.830;6.914;2023-05-16T03:27:45;7.70;;;1.50;;
52724;SDS011;38621;52.830;6.914;2023-05-16T03:30:11;4.28;;;1.40;;
52724;SDS011;38621;52.830;6.914;2023-05-16T03:32:37;9.57;;;1.55;;
52724;SDS011;38621;52.830;6.914;2023-05-16T03:35:03;7.57;;;1.70;;
52724;SDS011;38621;52.830;6.914;2023-05-16T03:37:29;8.15;;;2.13;;
52724;SDS011;38621;52.830;6.914;2023-05-16T03:39:55;6.38;;;1.35;;
52724;SDS011;38621;52.830;6.914;2023-05-16T03:42:21;7.05;;;1.40;;
52724;SDS011;38621;52.830;6.914;2023-05-16T03:44:47;7.88;;;1.85;;
52724;SDS011;38621;52.830;6.914;2023-05-16T03:47:12;8.63;;;1.63;;
52724;SDS011;38621;52.830;6.914;2023-05-16T03:49:38;4.18;;;2.03;;
52724;SDS011;38621;52.830;6.914;2023-05-16T03:52:05;4.15;;;1.20;;
52724;SDS011;38621;52.830;6.914;2023-05-16T03:54:31;4.68;;;1.55;;
52724;SDS011;38621;52.830;6.914;2023-05-16T03:56:56;6.03;;;1.60;;
52724;SDS011;38621;52.830;6.914;2023-05-16T03:59:22;4.75;;;1.60;;
52724;SDS011;38621;52.830;6.914;2023-05-16T04:01:48;11.52;;;3.30;;
52724;SDS011;38621;52.830;6.914;2023-05-16T04:04:14;6.88;;;1.50;;
52724;SDS011;38621;52.830;6.914;2023-05-16T04:06:40;7.15;;;1.98;;
52724;SDS011;38621;52.830;6.914;2023-05-16T04:09:05;5.13;;;1.70;;
52724;SDS011;38621;52.830;6.914;2023-05-16T04:11:31;7.32;;;1.52;;
52724;SDS011;38621;52.830;6.914;2023-05-16T04:13:58;8.65;;;1.95;;
52724;SDS011;38621;52.830;6.914;2023-05-16T04:16:25;7.10;;;1.73;;
52724;SDS011;38621;52.830;6.914;2023-05-16T04:18:51;5.30;;;1.38;;
52724;SDS011;38621;52.830;6.914;2023-05-16T04:21:17;6.75;;;1.63;;
52724;SDS011;38621;52.830;6.914;2023-05-16T04:23:43;6.03;;;1.67;;
52724;SDS011;38621;52.830;6.914;2023-05-16T04:26:08;6.95;;;1.95;;
52724;SDS011;38621;52.830;6.914;2023-05-16T04:28:34;2.67;;;1.40;;
52724;SDS011;38621;52.830;6.914;2023-05-16T04:31:00;5.15;;;1.55;;
52724;SDS011;38621;52.830;6.914;2023-05-16T04:33:27;6.00;;;1.77;;
52724;SDS011;38621;52.830;6.914;2023-05-16T04:35:52;8.10;;;2.00;;
52724;SDS011;38621;52.830;6.914;2023-05-16T04:38:18;8.52;;;1.85;;
52724;SDS011;38621;52.830;6.914;2023-05-16T04:40:44;9.30;;;2.03;;
52724;SDS011;38621;52.830;6.914;2023-05-16T04:43:10;8.70;;;2.03;;
52724;SDS011;38621;52.830;6.914;2023-05-16T04:45:36;6.05;;;1.55;;
52724;SDS011;38621;52.830;6.914;2023-05-16T04:48:02;6.43;;;1.60;;
52724;SDS011;38621;52.830;6.914;2023-05-16T04:50:28;8.70;;;2.65;;
52724;SDS011;38621;52.830;6.914;2023-05-16T04:52:53;9.27;;;1.98;;
52724;SDS011;38621;52.830;6.914;2023-05-16T04:55:19;9.10;;;1.75;;
52724;SDS011;38621;52.830;6.914;2023-05-16T04:57:45;5.57;;;1.38;;
52724;SDS011;38621;52.830;6.914;2023-05-16T05:00:11;5.05;;;1.50;;
52724;SDS011;38621;52.830;6.914;2023-05-16T05:02:37;7.45;;;1.83;;
52724;SDS011;38621;52.830;6.914;2023-05-16T05:05:03;7.35;;;1.60;;
52724;SDS011;38621;52.830;6.914;2023-05-16T05:07:30;5.53;;;1.70;;
52724;SDS011;38621;52.830;6.914;2023-05-16T05:09:57;5.28;;;1.65;;
52724;SDS011;38621;52.830;6.914;2023-05-16T05:12:23;9.18;;;2.05;;
52724;SDS011;38621;52.830;6.914;2023-05-16T05:14:49;4.13;;;1.40;;
52724;SDS011;38621;52.830;6.914;2023-05-16T05:17:16;5.10;;;1.73;;
52724;SDS011;38621;52.830;6.914;2023-05-16T05:19:42;8.70;;;1.85;;
52724;SDS011;38621;52.830;6.914;2023-05-16T05:22:08;4.00;;;1.48;;
52724;SDS011;38621;52.830;6.914;2023-05-16T05:24:33;5.57;;;2.55;;
52724;SDS011;38621;52.830;6.914;2023-05-16T05:26:59;4.55;;;1.50;;
52724;SDS011;38621;52.830;6.914;2023-05-16T05:29:25;5.95;;;1.35;;
52724;SDS011;38621;52.830;6.914;2023-05-16T05:31:51;4.88;;;1.63;;
52724;SDS011;38621;52.830;6.914;2023-05-16T05:34:16;7.35;;;1.48;;
52724;SDS011;38621;52.830;6.914;2023-05-16T05:36:42;3.55;;;1.35;;
52724;SDS011;38621;52.830;6.914;2023-05-16T05:39:08;4.20;;;1.40;;
52724;SDS011;38621;52.830;6.914;2023-05-16T05:41:35;7.10;;;2.25;;
52724;SDS011;38621;52.830;6.914;2023-05-16T05:44:01;5.95;;;1.42;;
52724;SDS011;38621;52.830;6.914;2023-05-16T05:46:27;8.30;;;1.52;;
52724;SDS011;38621;52.830;6.914;2023-05-16T05:48:53;6.63;;;1.50;;
52724;SDS011;38621;52.830;6.914;2023-05-16T05:51:19;5.32;;;1.40;;
52724;SDS011;38621;52.830;6.914;2023-05-16T05:53:45;4.28;;;1.75;;
52724;SDS011;38621;52.830;6.914;2023-05-16T05:56:11;6.28;;;1.90;;
52724;SDS011;38621;52.830;6.914;2023-05-16T05:58:37;5.45;;;1.30;;
52724;SDS011;38621;52.830;6.914;2023-05-16T06:01:03;4.75;;;1.73;;
52724;SDS011;38621;52.830;6.914;2023-05-16T06:03:29;3.70;;;1.50;;
52724;SDS011;38621;52.830;6.914;2023-05-16T06:05:55;4.97;;;1.50;;
52724;SDS011;38621;52.830;6.914;2023-05-16T06:08:20;6.38;;;1.80;;
52724;SDS011;38621;52.830;6.914;2023-05-16T06:10:46;4.82;;;1.20;;
52724;SDS011;38621;52.830;6.914;2023-05-16T06:13:12;5.63;;;1.60;;
52724;SDS011;38621;52.830;6.914;2023-05-16T06:15:37;3.28;;;1.00;;
52724;SDS011;38621;52.830;6.914;2023-05-16T06:18:03;6.30;;;1.38;;
52724;SDS011;38621;52.830;6.914;2023-05-16T06:20:29;7.40;;;1.40;;
52724;SDS011;38621;52.830;6.914;2023-05-16T06:22:54;5.78;;;1.45;;
52724;SDS011;38621;52.830;6.914;2023-05-16T06:25:20;5.82;;;1.35;;
52724;SDS011;38621;52.830;6.914;2023-05-16T06:27:46;8.27;;;1.90;;
52724;SDS011;38621;52.830;6.914;2023-05-16T06:30:12;5.53;;;1.98;;
52724;SDS011;38621;52.830;6.914;2023-05-16T06:32:37;4.40;;;1.20;;
52724;SDS011;38621;52.830;6.914;2023-05-16T06:35:05;6.30;;;1.30;;
52724;SDS011;38621;52.830;6.914;2023-05-16T06:37:32;6.18;;;1.38;;
52724;SDS011;38621;52.830;6.914;2023-05-16T06:39:58;4.50;;;1.10;;
52724;SDS011;38621;52.830;6.914;2023-05-16T06:42:23;5.40;;;1.50;;
52724;SDS011;38621;52.830;6.914;2023-05-16T06:44:49;3.40;;;1.02;;
52724;SDS011;38621;52.830;6.914;2023-05-16T06:47:15;5.80;;;1.77;;
52724;SDS011;38621;52.830;6.914;2023-05-16T06:49:40;6.18;;;1.20;;
52724;SDS011;38621;52.830;6.914;2023-05-16T06:52:06;6.40;;;1.40;;
52724;SDS011;38621;52.830;6.914;2023-05-16T06:54:32;5.32;;;1.60;;
52724;SDS011;38621;52.830;6.914;2023-05-16T06:56:58;3.92;;;1.30;;
52724;SDS011;38621;52.830;6.914;2023-05-16T06:59:23;4.78;;;1.40;;
52724;SDS011;38621;52.830;6.914;2023-05-16T07:01:49;3.70;;;1.08;;
52724;SDS011;38621;52.830;6.914;2023-05-16T07:04:15;4.22;;;1.00;;
52724;SDS011;38621;52.830;6.914;2023-05-16T07:06:40;5.25;;;1.20;;
52724;SDS011;38621;52.830;6.914;2023-05-16T07:09:06;5.40;;;1.35;;
52724;SDS011;38621;52.830;6.914;2023-05-16T07:11:32;8.40;;;1.70;;
52724;SDS011;38621;52.830;6.914;2023-05-16T07:13:58;3.85;;;0.90;;
52724;SDS011;38621;52.830;6.914;2023-05-16T07:16:23;4.55;;;1.50;;
52724;SDS011;38621;52.830;6.914;2023-05-16T07:18:52;3.78;;;1.00;;
52724;SDS011;38621;52.830;6.914;2023-05-16T07:21:18;3.90;;;1.13;;
52724;SDS011;38621;52.830;6.914;2023-05-16T07:23:44;5.57;;;1.15;;
52724;SDS011;38621;52.830;6.914;2023-05-16T07:26:10;5.70;;;1.63;;
52724;SDS011;38621;52.830;6.914;2023-05-16T07:28:35;4.38;;;1.20;;
52724;SDS011;38621;52.830;6.914;2023-05-16T07:31:01;3.47;;;1.20;;
52724;SDS011;38621;52.830;6.914;2023-05-16T07:33:27;5.35;;;0.90;;
52724;SDS011;38621;52.830;6.914;2023-05-16T07:35:52;4.32;;;1.35;;
52724;SDS011;38621;52.830;6.914;2023-05-16T07:38:19;2.75;;;0.90;;
52724;SDS011;38621;52.830;6.914;2023-05-16T07:40:46;3.58;;;1.13;;
52724;SDS011;38621;52.830;6.914;2023-05-16T07:43:11;2.50;;;1.00;;
52724;SDS011;38621;52.830;6.914;2023-05-16T07:45:37;4.22;;;1.02;;
52724;SDS011;38621;52.830;6.914;2023-05-16T07:48:03;5.28;;;1.02;;
52724;SDS011;38621;52.830;6.914;2023-05-16T07:50:29;2.92;;;1.08;;
52724;SDS011;38621;52.830;6.914;2023-05-16T07:52:54;4.47;;;1.05;;
52724;SDS011;38621;52.830;6.914;2023-05-16T07:55:20;2.13;;;0.68;;
52724;SDS011;38621;52.830;6.914;2023-05-16T07:57:46;3.25;;;0.80;;
52724;SDS011;38621;52.830;6.914;2023-05-16T08:00:13;3.10;;;0.90;;
52724;SDS011;38621;52.830;6.914;2023-05-16T08:02:39;2.90;;;0.73;;
52724;SDS011;38621;52.830;6.914;2023-05-16T08:05:05;3.53;;;1.08;;
52724;SDS011;38621;52.830;6.914;2023-05-16T08:07:31;2.38;;;1.00;;
52724;SDS011;38621;52.830;6.914;2023-05-16T08:09:57;3.47;;;1.00;;
52724;SDS011;38621;52.830;6.914;2023-05-16T08:12:23;3.42;;;1.00;;
52724;SDS011;38621;52.830;6.914;2023-05-16T08:14:49;4.18;;;1.13;;
52724;SDS011;38621;52.830;6.914;2023-05-16T08:17:15;3.03;;;0.82;;
52724;SDS011;38621;52.830;6.914;2023-05-16T08:19:40;2.47;;;0.85;;
52724;SDS011;38621;52.830;6.914;2023-05-16T08:22:06;2.42;;;1.00;;
52724;SDS011;38621;52.830;6.914;2023-05-16T08:24:34;3.92;;;0.73;;
52724;SDS011;38621;52.830;6.914;2023-05-16T08:27:00;2.60;;;0.82;;
52724;SDS011;38621;52.830;6.914;2023-05-16T08:29:25;2.42;;;0.80;;
52724;SDS011;38621;52.830;6.914;2023-05-16T08:31:51;4.20;;;1.00;;
52724;SDS011;38621;52.830;6.914;2023-05-16T08:34:17;4.95;;;1.00;;
52724;SDS011;38621;52.830;6.914;2023-05-16T08:36:42;4.28;;;1.00;;
52724;SDS011;38621;52.830;6.914;2023-05-16T08:39:08;3.92;;;0.93;;
52724;SDS011;38621;52.830;6.914;2023-05-16T08:41:37;2.72;;;0.88;;
52724;SDS011;38621;52.830;6.914;2023-05-16T08:44:03;3.80;;;0.88;;
52724;SDS011;38621;52.830;6.914;2023-05-16T08:46:29;6.43;;;3.38;;
52724;SDS011;38621;52.830;6.914;2023-05-16T08:48:59;2.85;;;0.73;;
52724;SDS011;38621;52.830;6.914;2023-05-16T08:51:27;7.88;;;1.20;;
52724;SDS011;38621;52.830;6.914;2023-05-16T08:54:01;1.48;;;0.77;;
52724;SDS011;38621;52.830;6.914;2023-05-16T08:56:28;2.63;;;1.00;;
52724;SDS011;38621;52.830;6.914;2023-05-16T08:58:55;3.80;;;1.30;;
52724;SDS011;38621;52.830;6.914;2023-05-16T09:01:22;2.38;;;1.00;;
52724;SDS011;38621;52.830;6.914;2023-05-16T09:03:48;2.92;;;0.75;;
52724;SDS011;38621;52.830;6.914;2023-05-16T09:06:15;3.65;;;0.70;;
52724;SDS011;38621;52.830;6.914;2023-05-16T09:08:41;3.47;;;1.05;;
52724;SDS011;38621;52.830;6.914;2023-05-16T09:11:07;6.95;;;0.90;;
52724;SDS011;38621;52.830;6.914;2023-05-16T09:13:33;3.45;;;0.80;;
52724;SDS011;38621;52.830;6.914;2023-05-16T09:16:08;2.78;;;0.90;;
52724;SDS011;38621;52.830;6.914;2023-05-16T09:18:34;4.00;;;0.90;;
52724;SDS011;38621;52.830;6.914;2023-05-16T09:21:02;3.90;;;1.65;;
52724;SDS011;38621;52.830;6.914;2023-05-16T09:23:29;4.20;;;1.10;;
52724;SDS011;38621;52.830;6.914;2023-05-16T09:25:56;5.18;;;0.90;;
52724;SDS011;38621;52.830;6.914;2023-05-16T09:28:22;3.85;;;0.90;;
52724;SDS011;38621;52.830;6.914;2023-05-16T09:30:50;5.15;;;1.00;;
52724;SDS011;38621;52.830;6.914;2023-05-16T09:33:17;4.20;;;1.02;;
52724;SDS011;38621;52.830;6.914;2023-05-16T09:35:43;4.47;;;1.05;;
52724;SDS011;38621;52.830;6.914;2023-05-16T09:38:12;6.72;;;1.42;;
52724;SDS011;38621;52.830;6.914;2023-05-16T09:40:39;3.38;;;1.15;;
52724;SDS011;38621;52.830;6.914;2023-05-16T09:43:06;6.30;;;1.10;;
52724;SDS011;38621;52.830;6.914;2023-05-16T09:45:32;4.60;;;1.15;;
52724;SDS011;38621;52.830;6.914;2023-05-16T09:48:05;4.75;;;1.10;;
52724;SDS011;38621;52.830;6.914;2023-05-16T09:50:33;3.65;;;1.10;;
52724;SDS011;38621;52.830;6.914;2023-05-16T09:53:00;4.25;;;1.20;;
52724;SDS011;38621;52.830;6.914;2023-05-16T09:55:26;3.65;;;1.13;;
52724;SDS011;38621;52.830;6.914;2023-05-16T09:57:52;6.30;;;1.20;;
52724;SDS011;38621;52.830;6.914;2023-05-16T10:00:18;2.17;;;1.13;;
52724;SDS011;38621;52.830;6.914;2023-05-16T10:02:44;6.03;;;1.30;;
52724;SDS011;38621;52.830;6.914;2023-05-16T10:05:10;4.30;;;1.10;;
52724;SDS011;38621;52.830;6.914;2023-05-16T10:07:35;3.13;;;0.90;;
52724;SDS011;38621;52.830;6.914;2023-05-16T10:10:06;4.10;;;0.93;;
52724;SDS011;38621;52.830;6.914;2023-05-16T10:12:33;1.95;;;0.60;;
52724;SDS011;38621;52.830;6.914;2023-05-16T10:15:01;3.38;;;0.90;;
52724;SDS011;38621;52.830;6.914;2023-05-16T10:17:29;2.80;;;1.10;;
52724;SDS011;38621;52.830;6.914;2023-05-16T10:19:59;2.67;;;0.80;;
52724;SDS011;38621;52.830;6.914;2023-05-16T10:22:31;3.75;;;0.82;;
52724;SDS011;38621;52.830;6.914;2023-05-16T10:25:02;3.95;;;0.93;;
52724;SDS011;38621;52.830;6.914;2023-05-16T10:27:54;1.98;;;0.80;;
52724;SDS011;38621;52.830;6.914;2023-05-16T10:30:20;3.08;;;0.90;;
52724;SDS011;38621;52.830;6.914;2023-05-16T10:32:46;3.63;;;0.80;;
52724;SDS011;38621;52.830;6.914;2023-05-16T10:35:13;2.22;;;0.80;;
52724;SDS011;38621;52.830;6.914;2023-05-16T10:37:38;2.75;;;0.70;;
52724;SDS011;38621;52.830;6.914;2023-05-16T10:40:06;3.90;;;1.38;;
52724;SDS011;38621;52.830;6.914;2023-05-16T10:42:32;3.28;;;0.80;;
52724;SDS011;38621;52.830;6.914;2023-05-16T10:47:54;3.47;;;0.80;;
52724;SDS011;38621;52.830;6.914;2023-05-16T10:50:41;3.47;;;1.10;;
52724;SDS011;38621;52.830;6.914;2023-05-16T10:55:49;3.63;;;1.00;;
52724;SDS011;38621;52.830;6.914;2023-05-16T11:01:23;3.88;;;1.15;;
52724;SDS011;38621;52.830;6.914;2023-05-16T11:03:59;3.08;;;0.70;;
52724;SDS011;38621;52.830;6.914;2023-05-16T11:14:05;4.75;;;1.08;;
52724;SDS011;38621;52.830;6.914;2023-05-16T11:16:31;3.05;;;0.80;;
52724;SDS011;38621;52.830;6.914;2023-05-16T11:19:05;3.92;;;0.75;;
52724;SDS011;38621;52.830;6.914;2023-05-16T11:22:32;2.53;;;0.80;;
52724;SDS011;38621;52.830;6.914;2023-05-16T11:24:30;2.47;;;0.75;;
52724;SDS011;38621;52.830;6.914;2023-05-16T11:26:59;3.13;;;0.88;;
52724;SDS011;38621;52.830;6.914;2023-05-16T11:29:30;3.80;;;0.82;;
52724;SDS011;38621;52.830;6.914;2023-05-16T11:31:58;4.75;;;1.10;;
52724;SDS011;38621;52.830;6.914;2023-05-16T11:34:25;3.53;;;0.75;;
52724;SDS011;38621;52.830;6.914;2023-05-16T11:36:51;2.60;;;0.90;;
52724;SDS011;38621;52.830;6.914;2023-05-16T11:39:17;3.10;;;0.80;;
52724;SDS011;38621;52.830;6.914;2023-05-16T11:41:45;3.33;;;0.93;;
52724;SDS011;38621;52.830;6.914;2023-05-16T11:44:11;2.90;;;0.73;;
52724;SDS011;38621;52.830;6.914;2023-05-16T11:46:40;2.85;;;0.77;;
52724;SDS011;38621;52.830;6.914;2023-05-16T11:49:06;3.05;;;0.82;;
52724;SDS011;38621;52.830;6.914;2023-05-16T11:51:39;2.92;;;0.90;;
52724;SDS011;38621;52.830;6.914;2023-05-16T11:54:10;3.88;;;0.80;;
52724;SDS011;38621;52.830;6.914;2023-05-16T11:56:37;2.03;;;0.75;;
52724;SDS011;38621;52.830;6.914;2023-05-16T11:59:04;3.13;;;0.70;;
52724;SDS011;38621;52.830;6.914;2023-05-16T12:01:32;2.85;;;0.88;;
52724;SDS011;38621;52.830;6.914;2023-05-16T12:04:12;1.90;;;0.70;;
52724;SDS011;38621;52.830;6.914;2023-05-16T12:06:38;2.55;;;1.02;;
52724;SDS011;38621;52.830;6.914;2023-05-16T12:09:05;5.38;;;1.08;;
52724;SDS011;38621;52.830;6.914;2023-05-16T12:11:38;2.67;;;0.90;;
52724;SDS011;38621;52.830;6.914;2023-05-16T12:14:06;2.83;;;0.82;;
52724;SDS011;38621;52.830;6.914;2023-05-16T12:16:34;2.92;;;0.90;;
52724;SDS011;38621;52.830;6.914;2023-05-16T12:19:02;2.58;;;1.10;;
52724;SDS011;38621;52.830;6.914;2023-05-16T12:21:30;4.85;;;1.48;;
52724;SDS011;38621;52.830;6.914;2023-05-16T12:23:56;3.00;;;1.02;;
52724;SDS011;38621;52.830;6.914;2023-05-16T12:26:25;3.28;;;1.40;;
52724;SDS011;38621;52.830;6.914;2023-05-16T12:28:55;4.10;;;1.60;;
52724;SDS011;38621;52.830;6.914;2023-05-16T12:31:24;3.10;;;1.30;;
52724;SDS011;38621;52.830;6.914;2023-05-16T12:33:54;3.67;;;1.27;;
52724;SDS011;38621;52.830;6.914;2023-05-16T12:36:20;3.47;;;1.33;;
52724;SDS011;38621;52.830;6.914;2023-05-16T12:38:46;3.55;;;1.50;;
52724;SDS011;38621;52.830;6.914;2023-05-16T12:41:21;5.47;;;1.77;;
52724;SDS011;38621;52.830;6.914;2023-05-16T12:43:48;4.37;;;1.53;;
52724;SDS011;38621;52.830;6.914;2023-05-16T12:46:14;5.22;;;1.30;;
52724;SDS011;38621;52.830;6.914;2023-05-16T12:48:41;4.25;;;1.30;;
52724;SDS011;38621;52.830;6.914;2023-05-16T12:53:41;5.43;;;2.00;;
52724;SDS011;38621;52.830;6.914;2023-05-16T12:56:11;3.38;;;1.10;;
52724;SDS011;38621;52.830;6.914;2023-05-16T12:58:38;4.00;;;1.23;;
52724;SDS011;38621;52.830;6.914;2023-05-16T13:01:04;7.57;;;1.73;;
52724;SDS011;38621;52.830;6.914;2023-05-16T13:03:30;5.93;;;1.90;;
52724;SDS011;38621;52.830;6.914;2023-05-16T13:05:58;4.45;;;1.35;;
52724;SDS011;38621;52.830;6.914;2023-05-16T13:08:24;4.25;;;1.23;;
52724;SDS011;38621;52.830;6.914;2023-05-16T13:10:50;5.43;;;1.45;;
52724;SDS011;38621;52.830;6.914;2023-05-16T13:13:16;3.25;;;1.00;;
52724;SDS011;38621;52.830;6.914;2023-05-16T13:15:46;3.88;;;1.00;;
52724;SDS011;38621;52.830;6.914;2023-05-16T13:18:12;3.35;;;1.10;;
52724;SDS011;38621;52.830;6.914;2023-05-16T13:20:38;5.05;;;1.40;;
52724;SDS011;38621;52.830;6.914;2023-05-16T13:23:04;5.78;;;1.80;;
52724;SDS011;38621;52.830;6.914;2023-05-16T13:25:30;4.53;;;1.70;;
52724;SDS011;38621;52.830;6.914;2023-05-16T13:27:57;3.40;;;1.58;;
52724;SDS011;38621;52.830;6.914;2023-05-16T13:30:23;3.65;;;1.40;;
52724;SDS011;38621;52.830;6.914;2023-05-16T13:32:48;5.30;;;2.00;;
52724;SDS011;38621;52.830;6.914;2023-05-16T13:35:16;4.03;;;1.73;;
52724;SDS011;38621;52.830;6.914;2023-05-16T13:37:42;3.95;;;1.90;;
52724;SDS011;38621;52.830;6.914;2023-05-16T13:40:08;6.82;;;2.45;;
52724;SDS011;38621;52.830;6.914;2023-05-16T13:42:34;3.45;;;1.55;;
52724;SDS011;38621;52.830;6.914;2023-05-16T13:45:03;3.67;;;1.63;;
52724;SDS011;38621;52.830;6.914;2023-05-16T13:47:30;3.67;;;1.83;;
52724;SDS011;38621;52.830;6.914;2023-05-16T13:49:57;4.93;;;1.92;;
52724;SDS011;38621;52.830;6.914;2023-05-16T13:52:23;5.18;;;1.70;;
52724;SDS011;38621;52.830;6.914;2023-05-16T13:54:49;5.45;;;1.88;;
52724;SDS011;38621;52.830;6.914;2023-05-16T13:57:16;5.47;;;1.92;;
52724;SDS011;38621;52.830;6.914;2023-05-16T13:59:41;5.00;;;1.60;;
52724;SDS011;38621;52.830;6.914;2023-05-16T14:02:07;5.88;;;2.00;;
52724;SDS011;38621;52.830;6.914;2023-05-16T14:04:33;5.03;;;1.70;;
52724;SDS011;38621;52.830;6.914;2023-05-16T14:06:58;6.38;;;1.63;;
52724;SDS011;38621;52.830;6.914;2023-05-16T14:09:24;6.50;;;1.92;;
52724;SDS011;38621;52.830;6.914;2023-05-16T14:11:50;3.40;;;1.85;;
52724;SDS011;38621;52.830;6.914;2023-05-16T14:14:16;4.55;;;1.83;;
52724;SDS011;38621;52.830;6.914;2023-05-16T14:16:42;5.72;;;2.10;;
52724;SDS011;38621;52.830;6.914;2023-05-16T14:19:10;6.30;;;2.00;;
52724;SDS011;38621;52.830;6.914;2023-05-16T14:21:36;3.95;;;1.67;;
52724;SDS011;38621;52.830;6.914;2023-05-16T14:24:02;5.07;;;1.80;;
52724;SDS011;38621;52.830;6.914;2023-05-16T14:26:28;6.75;;;1.92;;
52724;SDS011;38621;52.830;6.914;2023-05-16T14:28:56;4.38;;;1.50;;
52724;SDS011;38621;52.830;6.914;2023-05-16T14:31:21;4.20;;;1.70;;
52724;SDS011;38621;52.830;6.914;2023-05-16T14:33:47;5.45;;;1.75;;
52724;SDS011;38621;52.830;6.914;2023-05-16T14:36:13;5.72;;;1.90;;
52724;SDS011;38621;52.830;6.914;2023-05-16T14:38:39;4.63;;;1.90;;
52724;SDS011;38621;52.830;6.914;2023-05-16T14:41:04;6.30;;;1.75;;
52724;SDS011;38621;52.830;6.914;2023-05-16T14:43:30;3.45;;;1.90;;
52724;SDS011;38621;52.830;6.914;2023-05-16T14:45:56;3.78;;;1.60;;
52724;SDS011;38621;52.830;6.914;2023-05-16T14:48:22;2.78;;;1.30;;
52724;SDS011;38621;52.830;6.914;2023-05-16T14:50:47;5.97;;;1.77;;
52724;SDS011;38621;52.830;6.914;2023-05-16T14:53:13;6.63;;;1.80;;
52724;SDS011;38621;52.830;6.914;2023-05-16T14:55:39;3.83;;;1.35;;
52724;SDS011;38621;52.830;6.914;2023-05-16T14:58:05;3.75;;;1.50;;
52724;SDS011;38621;52.830;6.914;2023-05-16T15:00:30;2.63;;;1.33;;
52724;SDS011;38621;52.830;6.914;2023-05-16T15:02:56;3.00;;;1.45;;
52724;SDS011;38621;52.830;6.914;2023-05-16T15:05:22;5.22;;;1.98;;
52724;SDS011;38621;52.830;6.914;2023-05-16T15:07:49;4.82;;;1.80;;
52724;SDS011;38621;52.830;6.914;2023-05-16T15:10:15;4.70;;;1.50;;
52724;SDS011;38621;52.830;6.914;2023-05-16T15:12:41;4.05;;;1.50;;
52724;SDS011;38621;52.830;6.914;2023-05-16T15:15:08;2.60;;;1.52;;
52724;SDS011;38621;52.830;6.914;2023-05-16T15:17:36;4.15;;;1.40;;